Time;durP1;ratioP1;P1;durP2;ratioP2;P2;SDS_P1;SDS_P2;PMS_P1;PMS_P2;Temp;Humidity;BMP_temperature;BMP_pressure;BME280_temperature;BME280_humidity;BME280_pressure;Samples;Min_cycle;Max_cycle;Signal;HPM_P1;HPM_P2
2022/01/17 00:01:21;;;;;;;30.70;15.13;;;-1.00;99.90;;;;;;5073506;28;20684;-65
2022/01/17 00:03:48;;;;;;;29.60;15.30;;;-0.90;99.90;;;;;;5073234;28;20201;-68
2022/01/17 00:06:15;;;;;;;31.90;15.43;;;-0.90;99.90;;;;;;5073297;28;20238;-68
2022/01/17 00:08:44;;;;;;;35.00;16.03;;;-0.90;99.90;;;;;;5073295;28;20219;-68
2022/01/17 00:11:14;;;;;;;33.30;15.40;;;-0.90;99.90;;;;;;5073380;28;20211;-68
2022/01/17 00:13:41;;;;;;;30.17;14.73;;;-0.90;99.90;;;;;;5073251;28;20665;-68
2022/01/17 00:16:13;;;;;;;33.73;15.67;;;-0.80;99.90;;;;;;5072922;28;20206;-68
2022/01/17 00:21:26;;;;;;;28.73;13.30;;;-0.80;99.90;;;;;;5063727;28;20279;-68
2022/01/17 00:23:53;;;;;;;28.80;13.97;;;-0.70;99.90;;;;;;5073077;28;20207;-67
2022/01/17 00:26:20;;;;;;;28.40;13.67;;;-0.70;99.90;;;;;;5072417;28;20204;-67
2022/01/17 00:28:47;;;;;;;28.43;14.07;;;-0.70;99.90;;;;;;5072451;28;20199;-68
2022/01/17 00:31:15;;;;;;;29.60;14.50;;;-0.70;99.90;;;;;;5072895;28;20196;-69
2022/01/17 00:33:42;;;;;;;34.00;14.50;;;-0.60;99.90;;;;;;5072637;28;20224;-70
2022/01/17 00:36:08;;;;;;;29.33;13.37;;;-0.60;99.90;;;;;;5072688;28;20200;-69
2022/01/17 00:38:35;;;;;;;28.50;14.57;;;-0.60;99.90;;;;;;5072003;28;20292;-70
2022/01/17 00:41:02;;;;;;;33.67;14.57;;;-0.50;99.90;;;;;;5072584;28;20240;-70
2022/01/17 00:43:29;;;;;;;28.87;14.27;;;-0.50;99.90;;;;;;5072528;28;20211;-68
2022/01/17 00:45:56;;;;;;;30.20;13.10;;;-0.50;99.90;;;;;;5072683;28;20208;-68
2022/01/17 00:48:24;;;;;;;29.07;13.27;;;-0.40;99.90;;;;;;5072115;28;20197;-69
2022/01/17 00:50:50;;;;;;;27.60;12.50;;;-0.40;99.90;;;;;;5071794;28;20205;-69
2022/01/17 00:53:17;;;;;;;21.63;11.80;;;-0.40;99.90;;;;;;5072382;28;20300;-68
2022/01/17 00:55:44;;;;;;;22.50;11.50;;;-0.30;99.90;;;;;;5072274;28;20205;-70
2022/01/17 00:58:11;;;;;;;24.70;12.07;;;-0.30;99.90;;;;;;5072590;28;20296;-69
2022/01/17 01:00:40;;;;;;;25.97;12.20;;;-0.30;99.90;;;;;;5072152;28;20299;-69
2022/01/17 01:03:07;;;;;;;25.17;11.83;;;-0.20;99.90;;;;;;5072463;28;20636;-69
2022/01/17 01:05:35;;;;;;;28.67;12.47;;;-0.10;99.90;;;;;;5072245;28;20197;-68
2022/01/17 01:08:02;;;;;;;24.13;11.47;;;-0.10;99.90;;;;;;5072142;28;20196;-71
2022/01/17 01:10:30;;;;;;;25.33;11.50;;;0.00;99.90;;;;;;5072269;28;20204;-68
2022/01/17 01:12:57;;;;;;;21.90;10.87;;;0.00;99.90;;;;;;5072074;28;20210;-69
2022/01/17 01:15:44;;;;;;;27.03;11.63;;;0.00;99.90;;;;;;5071688;28;20221;-68
2022/01/17 01:18:16;;;;;;;23.20;10.67;;;0.10;99.90;;;;;;5072312;28;20224;-70
2022/01/17 01:21:09;;;;;;;26.70;11.37;;;0.20;99.90;;;;;;5071705;28;20531;-69
2022/01/17 01:29:04;;;;;;;24.43;11.40;;;0.30;99.90;;;;;;5071979;28;20188;-68
2022/01/17 01:31:42;;;;;;;24.97;11.10;;;0.40;99.90;;;;;;5070849;28;20707;-69
2022/01/17 01:34:09;;;;;;;22.50;11.17;;;0.50;99.90;;;;;;5071900;28;20664;-67
2022/01/17 01:36:38;;;;;;;27.17;11.57;;;0.50;99.90;;;;;;5071421;28;20205;-68
2022/01/17 01:39:07;;;;;;;29.17;12.07;;;0.50;99.90;;;;;;5071751;28;20205;-70
2022/01/17 01:41:42;;;;;;;29.53;11.90;;;0.50;99.90;;;;;;5071356;28;20229;-68
2022/01/17 01:44:13;;;;;;;25.77;11.70;;;0.50;99.90;;;;;;5071426;28;20197;-67
2022/01/17 01:46:40;;;;;;;22.67;11.17;;;0.50;99.90;;;;;;5071522;28;20238;-67
2022/01/17 01:49:06;;;;;;;25.93;12.13;;;0.40;99.90;;;;;;5071713;28;20205;-68
2022/01/17 01:51:33;;;;;;;26.37;12.40;;;0.40;99.90;;;;;;5071369;28;20211;-69
2022/01/17 01:54:02;;;;;;;28.27;12.60;;;0.30;99.90;;;;;;5071616;28;20228;-68
2022/01/17 01:56:29;;;;;;;27.93;13.00;;;0.30;99.90;;;;;;5071398;28;20205;-69
2022/01/17 01:58:56;;;;;;;28.17;13.30;;;0.30;99.90;;;;;;5071775;28;20209;-67
2022/01/17 02:01:23;;;;;;;29.23;14.03;;;0.20;99.90;;;;;;5071735;28;20215;-69
2022/01/17 02:03:50;;;;;;;30.40;13.77;;;0.20;99.90;;;;;;5074889;28;20200;-68
2022/01/17 02:06:17;;;;;;;33.83;14.43;;;0.20;99.90;;;;;;5071751;28;20207;-67
2022/01/17 02:08:44;;;;;;;32.43;14.40;;;0.20;99.90;;;;;;5071371;28;20242;-68
2022/01/17 02:11:12;;;;;;;32.47;13.83;;;0.20;99.90;;;;;;5071271;28;20209;-68
2022/01/17 02:13:39;;;;;;;30.20;13.73;;;0.20;99.90;;;;;;5071623;28;20300;-69
2022/01/17 02:16:10;;;;;;;35.97;15.50;;;0.20;99.90;;;;;;5071777;28;20556;-68
2022/01/17 02:18:37;;;;;;;31.13;15.03;;;0.20;99.90;;;;;;5071333;28;20200;-67
2022/01/17 02:21:18;;;;;;;32.47;14.83;;;0.20;99.90;;;;;;5071647;28;20215;-68
2022/01/17 02:23:47;;;;;;;34.70;15.00;;;0.30;99.90;;;;;;5071059;28;20246;-68
2022/01/17 02:26:16;;;;;;;31.03;16.07;;;0.30;99.90;;;;;;5070986;28;20660;-67
2022/01/17 02:28:46;;;;;;;32.90;15.03;;;0.30;99.90;;;;;;5075702;28;20192;-68
2022/01/17 02:31:13;;;;;;;28.80;14.27;;;0.20;99.90;;;;;;5077644;28;20211;-67
2022/01/17 02:33:40;;;;;;;32.57;15.07;;;0.30;99.90;;;;;;5071258;28;20204;-68
2022/01/17 02:36:09;;;;;;;30.70;14.67;;;0.30;99.90;;;;;;5071392;28;20225;-68
2022/01/17 02:38:36;;;;;;;35.73;14.43;;;0.30;99.90;;;;;;5070804;28;20201;-68
2022/01/17 02:41:02;;;;;;;30.77;14.13;;;0.30;99.90;;;;;;5070988;28;20232;-68
2022/01/17 02:43:31;;;;;;;31.67;14.90;;;0.30;99.90;;;;;;5071195;28;20209;-68
2022/01/17 02:48:43;;;;;;;32.50;14.73;;;0.40;99.90;;;;;;5072870;28;20192;-69
2022/01/17 02:51:12;;;;;;;29.70;13.47;;;0.40;99.90;;;;;;5074694;28;20204;-67
2022/01/17 02:53:40;;;;;;;33.50;14.23;;;0.50;99.90;;;;;;5075142;28;20258;-70
2022/01/17 02:56:09;;;;;;;35.37;14.60;;;0.50;99.90;;;;;;5074686;28;20244;-68
2022/01/17 02:58:38;;;;;;;34.80;16.20;;;0.50;99.90;;;;;;5054292;28;20206;-69
2022/01/17 03:01:07;;;;;;;34.03;15.30;;;0.50;99.90;;;;;;5054854;28;20569;-69
2022/01/17 03:03:34;;;;;;;34.10;15.73;;;0.50;99.90;;;;;;5062406;28;20645;-68
2022/01/17 03:06:01;;;;;;;33.07;14.83;;;0.60;99.90;;;;;;5074553;28;20595;-68
2022/01/17 03:08:32;;;;;;;34.30;15.03;;;0.60;99.90;;;;;;5074346;28;20204;-67
2022/01/17 03:11:05;;;;;;;34.83;14.80;;;0.60;99.90;;;;;;5074356;28;20193;-67
2022/01/17 03:13:34;;;;;;;34.43;15.13;;;0.60;99.90;;;;;;5074345;28;20567;-68
2022/01/17 03:16:04;;;;;;;33.50;15.30;;;0.50;99.90;;;;;;5073909;28;20260;-68
2022/01/17 03:18:36;;;;;;;34.57;15.37;;;0.50;99.90;;;;;;5073609;28;20276;-68
2022/01/17 03:21:04;;;;;;;34.70;16.43;;;0.50;99.90;;;;;;5074535;28;20238;-68
2022/01/17 03:23:32;;;;;;;36.80;15.67;;;0.60;99.90;;;;;;5074124;28;20719;-68
2022/01/17 03:25:59;;;;;;;33.70;14.77;;;0.60;99.90;;;;;;5074170;28;20546;-68
2022/01/17 03:28:26;;;;;;;32.03;15.33;;;0.60;99.90;;;;;;5073763;28;20208;-67
2022/01/17 03:30:53;;;;;;;34.73;14.90;;;0.60;99.90;;;;;;5074184;28;20204;-68
2022/01/17 03:33:20;;;;;;;34.33;14.67;;;0.60;99.90;;;;;;5073938;28;20548;-68
2022/01/17 03:35:47;;;;;;;30.40;13.53;;;0.60;99.90;;;;;;5073991;28;20221;-69
2022/01/17 03:38:16;;;;;;;35.13;14.40;;;0.60;99.90;;;;;;5073870;28;20661;-69
2022/01/17 03:40:46;;;;;;;34.27;14.53;;;0.60;99.90;;;;;;5072093;28;20235;-69
2022/01/17 03:43:13;;;;;;;34.43;14.63;;;0.70;99.90;;;;;;5073395;28;20211;-68
2022/01/17 03:45:41;;;;;;;32.47;13.80;;;0.70;99.90;;;;;;5073877;28;20196;-69
2022/01/17 03:48:08;;;;;;;29.90;13.03;;;0.70;99.90;;;;;;5073627;28;20566;-69
2022/01/17 03:50:35;;;;;;;30.67;13.73;;;0.70;99.90;;;;;;5073450;28;20212;-70
2022/01/17 03:53:02;;;;;;;30.30;13.50;;;0.70;99.90;;;;;;5073797;28;20555;-70
2022/01/17 03:55:29;;;;;;;29.37;13.20;;;0.80;99.90;;;;;;5073033;28;20231;-70
2022/01/17 03:57:57;;;;;;;30.97;13.13;;;0.80;99.90;;;;;;5072968;28;20665;-68
2022/01/17 04:00:26;;;;;;;25.13;12.17;;;0.80;99.90;;;;;;5073474;28;20219;-69
2022/01/17 04:02:54;;;;;;;28.70;12.23;;;0.90;99.90;;;;;;5073625;28;20561;-69
2022/01/17 04:05:21;;;;;;;26.47;11.73;;;1.00;99.90;;;;;;5073212;28;20200;-69
2022/01/17 04:07:49;;;;;;;24.67;11.83;;;0.90;99.90;;;;;;5073457;28;20211;-68
2022/01/17 04:10:16;;;;;;;24.80;10.67;;;1.00;99.90;;;;;;5072831;28;20349;-68
2022/01/17 04:12:44;;;;;;;21.67;10.23;;;1.00;99.90;;;;;;5073359;28;20224;-68
2022/01/17 04:15:13;;;;;;;23.00;11.17;;;1.00;99.90;;;;;;5072888;28;20554;-67
2022/01/17 04:17:42;;;;;;;21.97;10.57;;;1.00;99.90;;;;;;5072887;28;20197;-69
2022/01/17 04:20:14;;;;;;;22.50;10.63;;;1.00;99.90;;;;;;5073077;28;20204;-67
2022/01/17 04:22:45;;;;;;;22.03;9.73;;;1.10;99.90;;;;;;5072978;28;20246;-68
2022/01/17 04:25:12;;;;;;;25.20;11.27;;;1.10;99.90;;;;;;5072965;28;20188;-68
2022/01/17 04:27:39;;;;;;;23.07;9.90;;;1.20;99.90;;;;;;5073259;28;20211;-68
2022/01/17 04:30:07;;;;;;;25.10;10.77;;;1.20;99.90;;;;;;5072683;28;20204;-68
2022/01/17 04:32:36;;;;;;;26.20;10.93;;;1.20;99.90;;;;;;5072862;28;20211;-68
2022/01/17 04:35:03;;;;;;;28.10;11.20;;;1.10;99.90;;;;;;5072789;28;20711;-68
2022/01/17 04:37:30;;;;;;;26.23;11.80;;;1.10;99.90;;;;;;5072496;28;20205;-67
2022/01/17 04:39:57;;;;;;;27.03;12.40;;;1.00;99.90;;;;;;5072546;28;20656;-68
2022/01/17 04:42:27;;;;;;;23.40;11.77;;;1.00;99.90;;;;;;5072816;28;20733;-68
2022/01/17 04:45:13;;;;;;;26.97;12.30;;;0.90;99.90;;;;;;5072810;28;20260;-68
2022/01/17 04:47:43;;;;;;;25.73;12.00;;;0.90;99.90;;;;;;5072751;28;20633;-70
2022/01/17 04:50:13;;;;;;;25.63;12.33;;;0.80;99.90;;;;;;5072115;28;20224;-66
2022/01/17 04:52:40;;;;;;;28.00;13.37;;;0.70;99.90;;;;;;5070877;28;20193;-69
2022/01/17 04:55:09;;;;;;;27.03;12.30;;;0.70;99.90;;;;;;5079013;28;20227;-68
2022/01/17 04:57:36;;;;;;;29.60;13.50;;;0.60;99.90;;;;;;5085037;28;20227;-68
2022/01/17 05:00:05;;;;;;;26.57;12.00;;;0.60;99.90;;;;;;5071933;28;20201;-67
2022/01/17 05:02:32;;;;;;;33.43;12.73;;;0.60;99.90;;;;;;5072249;28;20201;-71
2022/01/17 05:05:02;;;;;;;30.03;12.97;;;0.60;99.90;;;;;;5072415;28;20197;-68
2022/01/17 05:07:29;;;;;;;27.70;13.17;;;0.60;99.90;;;;;;5072690;28;20646;-68
2022/01/17 05:09:56;;;;;;;31.00;13.70;;;0.60;99.90;;;;;;5072115;28;20212;-68
2022/01/17 05:12:24;;;;;;;26.73;12.90;;;0.60;99.90;;;;;;5056255;28;20293;-67
2022/01/17 05:14:52;;;;;;;27.00;12.80;;;0.60;99.90;;;;;;5052220;28;20662;-70
2022/01/17 05:20:07;;;;;;;28.67;13.60;;;0.60;99.90;;;;;;5051659;28;20323;-69
2022/01/17 05:22:35;;;;;;;28.57;13.63;;;0.70;99.90;;;;;;5052380;28;20195;-69
2022/01/17 05:25:04;;;;;;;24.47;12.47;;;0.70;99.90;;;;;;5052061;28;20212;-69
2022/01/17 05:27:31;;;;;;;27.27;13.63;;;0.70;99.90;;;;;;5051849;28;20205;-68
2022/01/17 05:29:58;;;;;;;30.30;13.30;;;0.70;99.90;;;;;;5051719;28;20205;-68
2022/01/17 05:32:24;;;;;;;27.87;13.30;;;0.70;99.90;;;;;;5051615;28;20210;-67
2022/01/17 05:34:51;;;;;;;28.17;13.80;;;0.70;99.90;;;;;;5051836;28;20562;-68
2022/01/17 05:37:19;;;;;;;28.10;13.87;;;0.70;99.90;;;;;;5052001;28;20208;-68
2022/01/17 05:39:46;;;;;;;27.13;13.33;;;0.70;99.90;;;;;;5052052;28;20813;-69
2022/01/17 05:42:17;;;;;;;28.23;13.80;;;0.70;99.90;;;;;;5051010;28;20237;-68
2022/01/17 05:44:44;;;;;;;31.80;14.53;;;0.70;99.90;;;;;;5051581;28;20197;-69
2022/01/17 05:47:11;;;;;;;29.30;13.90;;;0.80;99.90;;;;;;5054102;28;20296;-69
2022/01/17 05:49:38;;;;;;;29.33;14.57;;;0.70;99.90;;;;;;5092171;28;20560;-68
2022/01/17 05:52:06;;;;;;;32.57;14.33;;;0.70;99.90;;;;;;5091594;28;20561;-68
2022/01/17 05:54:34;;;;;;;25.70;13.63;;;0.70;99.90;;;;;;5091962;28;20207;-69
2022/01/17 05:57:01;;;;;;;31.70;14.77;;;0.70;99.90;;;;;;5091415;28;20224;-69
2022/01/17 05:59:28;;;;;;;30.63;13.97;;;0.80;99.90;;;;;;5072500;28;20197;-70
2022/01/17 06:01:55;;;;;;;31.63;14.23;;;0.80;99.90;;;;;;5071526;28;20551;-68
2022/01/17 06:04:22;;;;;;;27.37;14.20;;;0.80;99.90;;;;;;5071516;28;20211;-69
2022/01/17 06:06:49;;;;;;;35.33;14.13;;;0.90;99.90;;;;;;5071278;28;20554;-69
2022/01/17 06:09:16;;;;;;;28.73;13.87;;;0.90;99.90;;;;;;5071635;28;20726;-69
2022/01/17 06:11:44;;;;;;;30.93;13.97;;;0.90;99.90;;;;;;5071740;28;20566;-68
2022/01/17 06:14:16;;;;;;;27.97;13.50;;;1.00;99.90;;;;;;5071352;28;20196;-68
2022/01/17 06:16:42;;;;;;;32.90;14.40;;;1.00;99.90;;;;;;5071726;28;20296;-68
2022/01/17 06:19:09;;;;;;;28.77;13.87;;;1.00;99.90;;;;;;5071082;28;20219;-67
2022/01/17 06:21:36;;;;;;;32.47;14.83;;;1.00;99.90;;;;;;5071567;28;20208;-67
2022/01/17 06:24:05;;;;;;;31.07;13.70;;;1.10;99.90;;;;;;5073619;28;20210;-68
2022/01/17 06:26:32;;;;;;;30.57;14.10;;;1.10;99.90;;;;;;5075405;28;20208;-69
2022/01/17 06:29:01;;;;;;;26.03;13.77;;;1.10;99.90;;;;;;5074787;28;20209;-69
2022/01/17 06:31:27;;;;;;;35.23;16.47;;;1.10;99.90;;;;;;5075217;28;20512;-68
2022/01/17 06:33:54;;;;;;;30.60;14.53;;;1.10;99.90;;;;;;5075202;28;20277;-67
2022/01/17 06:36:21;;;;;;;27.40;13.90;;;1.10;99.90;;;;;;5075195;28;20227;-69
2022/01/17 06:38:49;;;;;;;30.40;13.70;;;1.10;99.90;;;;;;5074727;28;20219;-68
2022/01/17 06:41:16;;;;;;;32.93;14.67;;;1.10;99.90;;;;;;5076431;28;20731;-69
2022/01/17 06:43:43;;;;;;;29.23;14.10;;;1.10;99.90;;;;;;5080520;28;20204;-68
2022/01/17 06:46:12;;;;;;;34.40;15.27;;;1.10;99.90;;;;;;5075114;28;20201;-67
2022/01/17 06:48:38;;;;;;;33.43;16.67;;;1.10;99.90;;;;;;5075018;28;20212;-68
2022/01/17 06:51:05;;;;;;;32.17;15.87;;;1.20;99.90;;;;;;5075228;28;20566;-68
2022/01/17 06:53:32;;;;;;;30.70;13.70;;;1.30;99.90;;;;;;5075128;28;20227;-69
2022/01/17 06:56:00;;;;;;;30.27;13.57;;;1.30;99.90;;;;;;5074610;28;20646;-68
2022/01/17 06:58:27;;;;;;;30.07;14.83;;;1.30;99.90;;;;;;5074938;28;20258;-68
2022/01/17 07:00:54;;;;;;;31.57;14.67;;;1.40;99.90;;;;;;5074839;28;20294;-69
2022/01/17 07:03:22;;;;;;;27.77;13.70;;;1.40;99.90;;;;;;5074626;28;20217;-68
2022/01/17 07:05:49;;;;;;;28.40;14.53;;;1.40;99.90;;;;;;5074811;28;20197;-68
2022/01/17 07:08:16;;;;;;;32.13;14.53;;;1.50;99.90;;;;;;5074907;28;20201;-69
2022/01/17 07:10:43;;;;;;;32.17;14.63;;;1.60;99.90;;;;;;5073832;28;20201;-68
2022/01/17 07:13:10;;;;;;;32.03;15.53;;;1.60;99.90;;;;;;5074473;28;20205;-68
2022/01/17 07:15:37;;;;;;;33.47;15.37;;;1.60;99.90;;;;;;5074415;28;20221;-71
2022/01/17 07:18:06;;;;;;;30.93;15.00;;;1.60;99.90;;;;;;5074599;28;20287;-71
2022/01/17 07:20:34;;;;;;;36.90;16.43;;;1.60;99.90;;;;;;5074225;28;20212;-67
2022/01/17 07:23:01;;;;;;;36.67;15.70;;;1.70;99.90;;;;;;5074445;28;20215;-70
2022/01/17 07:25:28;;;;;;;33.00;16.07;;;1.70;99.90;;;;;;5074916;28;20208;-69
2022/01/17 07:27:57;;;;;;;32.80;16.33;;;1.70;99.90;;;;;;5074085;28;20219;-68
2022/01/17 07:30:24;;;;;;;33.20;16.47;;;1.70;99.90;;;;;;5074627;28;20211;-68
2022/01/17 07:32:51;;;;;;;29.17;15.57;;;1.80;99.90;;;;;;5074246;28;20672;-69
2022/01/17 07:35:18;;;;;;;31.53;14.73;;;1.80;99.90;;;;;;5073304;28;20584;-71
2022/01/17 07:37:46;;;;;;;32.17;14.57;;;1.80;99.90;;;;;;5073942;28;20556;-68
2022/01/17 07:40:13;;;;;;;32.27;15.43;;;1.80;99.90;;;;;;5073927;28;20223;-68
2022/01/17 07:42:40;;;;;;;33.33;16.27;;;1.80;99.90;;;;;;5073691;28;20197;-68
2022/01/17 07:45:12;;;;;;;33.37;16.30;;;1.80;99.90;;;;;;5074007;28;20307;-67
2022/01/17 07:47:44;;;;;;;34.97;16.10;;;1.90;99.90;;;;;;5073639;28;20189;-69
2022/01/17 07:50:19;;;;;;;32.50;16.40;;;1.90;99.90;;;;;;5073726;28;20193;-70
2022/01/17 07:52:48;;;;;;;35.60;17.10;;;1.90;99.90;;;;;;5073511;28;20196;-69
2022/01/17 07:55:16;;;;;;;28.70;16.03;;;1.90;99.90;;;;;;5074082;28;20211;-68
2022/01/17 07:57:44;;;;;;;33.83;17.83;;;2.00;99.90;;;;;;5073420;28;20489;-69
2022/01/17 08:00:13;;;;;;;35.17;17.97;;;1.90;99.90;;;;;;5080208;28;20203;-68
2022/01/17 08:02:40;;;;;;;33.17;18.07;;;2.00;99.90;;;;;;5078073;28;20247;-69
2022/01/17 08:05:10;;;;;;;32.90;17.40;;;2.00;99.90;;;;;;5072879;28;20212;-69
2022/01/17 08:07:37;;;;;;;35.37;17.73;;;2.00;99.90;;;;;;5072716;28;20193;-70
2022/01/17 08:10:12;;;;;;;37.77;18.17;;;2.10;99.90;;;;;;5073098;28;20201;-69
2022/01/17 08:12:39;;;;;;;37.70;18.53;;;2.10;99.90;;;;;;5072443;28;20203;-71
2022/01/17 08:15:06;;;;;;;35.60;18.27;;;2.00;99.90;;;;;;5073036;28;20645;-67
2022/01/17 08:17:33;;;;;;;35.83;19.17;;;2.10;99.90;;;;;;5072346;28;20304;-69
2022/01/17 08:20:00;;;;;;;40.20;19.00;;;2.10;99.90;;;;;;5071681;28;20193;-71
2022/01/17 08:22:26;;;;;;;39.33;18.97;;;2.10;99.90;;;;;;5072775;28;20200;-68
2022/01/17 08:24:53;;;;;;;40.27;19.93;;;2.10;99.90;;;;;;5072771;28;20197;-70
2022/01/17 08:27:21;;;;;;;40.33;19.37;;;2.10;99.90;;;;;;5071140;28;20196;-68
2022/01/17 08:29:48;;;;;;;46.73;20.23;;;2.10;99.90;;;;;;5071904;28;20581;-71
2022/01/17 08:32:15;;;;;;;39.60;19.83;;;2.20;99.90;;;;;;5071675;28;20207;-70
2022/01/17 08:34:42;;;;;;;37.87;19.63;;;2.20;99.90;;;;;;5071196;28;20298;-70
2022/01/17 08:37:09;;;;;;;38.80;18.87;;;2.20;99.90;;;;;;5072789;28;20220;-69
2022/01/17 08:39:36;;;;;;;39.37;20.03;;;2.20;99.90;;;;;;5072382;28;20204;-68
2022/01/17 08:42:10;;;;;;;39.20;19.40;;;2.20;99.90;;;;;;5072472;28;20236;-70
2022/01/17 08:44:38;;;;;;;40.00;20.70;;;2.20;99.90;;;;;;5072420;28;20318;-70
2022/01/17 08:47:06;;;;;;;40.43;20.17;;;2.20;99.90;;;;;;5071487;28;20212;-72
2022/01/17 08:49:33;;;;;;;45.40;21.10;;;2.30;99.90;;;;;;5072073;28;20212;-70
2022/01/17 08:52:00;;;;;;;41.30;19.60;;;2.30;99.90;;;;;;5070012;28;20214;-70
2022/01/17 08:54:27;;;;;;;35.90;19.13;;;2.30;99.90;;;;;;5071683;28;20569;-70
2022/01/17 08:56:54;;;;;;;39.40;19.17;;;2.40;99.90;;;;;;5072260;28;20589;-69
2022/01/17 08:59:21;;;;;;;37.70;19.80;;;2.40;99.90;;;;;;5071996;28;20216;-71
2022/01/17 09:01:49;;;;;;;37.13;18.93;;;2.40;99.90;;;;;;5072228;28;20232;-71
2022/01/17 09:04:16;;;;;;;36.73;19.13;;;2.40;99.90;;;;;;5071940;28;20236;-71
2022/01/17 09:06:43;;;;;;;36.10;18.80;;;2.40;99.90;;;;;;5072056;28;20549;-71
2022/01/17 09:09:09;;;;;;;34.63;18.67;;;2.40;99.90;;;;;;5072583;28;20219;-71
2022/01/17 09:11:36;;;;;;;33.07;18.17;;;2.40;99.90;;;;;;5078066;28;20203;-70
2022/01/17 09:14:03;;;;;;;36.10;18.00;;;2.40;99.90;;;;;;5072172;28;20205;-69
2022/01/17 09:16:30;;;;;;;32.53;17.17;;;2.50;99.90;;;;;;5071762;28;20221;-72
2022/01/17 09:19:00;;;;;;;32.10;17.00;;;2.50;99.90;;;;;;5071858;28;20304;-72
2022/01/17 09:21:27;;;;;;;32.03;17.03;;;2.50;99.90;;;;;;5074460;28;20232;-72
2022/01/17 09:23:57;;;;;;;35.27;17.23;;;2.60;99.90;;;;;;5071887;28;20583;-71
2022/01/17 09:26:25;;;;;;;33.17;16.73;;;2.60;99.90;;;;;;5072214;28;20231;-69
2022/01/17 09:28:52;;;;;;;31.70;17.27;;;2.60;99.90;;;;;;5071938;28;20665;-69
2022/01/17 09:31:19;;;;;;;30.27;16.70;;;2.60;99.90;;;;;;5071136;28;20582;-70
2022/01/17 09:33:46;;;;;;;29.07;16.17;;;2.60;99.90;;;;;;5071790;28;21016;-70
2022/01/17 09:36:15;;;;;;;31.93;16.13;;;2.60;99.90;;;;;;5071617;28;20230;-69
2022/01/17 09:38:42;;;;;;;30.20;16.87;;;2.60;99.90;;;;;;5071352;28;20205;-70
2022/01/17 09:41:10;;;;;;;30.03;16.00;;;2.60;99.90;;;;;;5071111;28;20599;-71
2022/01/17 09:43:37;;;;;;;32.33;17.10;;;2.50;99.90;;;;;;5071149;28;20224;-68
2022/01/17 09:46:05;;;;;;;35.90;17.87;;;2.50;99.90;;;;;;5071114;28;20315;-68
2022/01/17 09:48:36;;;;;;;32.47;16.57;;;2.50;99.90;;;;;;5071781;28;20696;-71
2022/01/17 09:51:15;;;;;;;29.83;16.60;;;2.50;99.90;;;;;;5071616;28;20641;-68
2022/01/17 09:53:44;;;;;;;33.00;18.10;;;2.60;99.90;;;;;;5072005;28;20188;-68
2022/01/17 09:56:11;;;;;;;31.47;16.97;;;2.60;99.90;;;;;;5071049;28;20297;-69
2022/01/17 09:58:40;;;;;;;34.83;17.43;;;2.60;99.90;;;;;;5074659;28;20204;-68
2022/01/17 10:01:08;;;;;;;32.10;17.40;;;2.60;99.90;;;;;;5078848;28;20656;-68
2022/01/17 10:03:37;;;;;;;30.93;17.17;;;2.60;99.90;;;;;;5078341;28;20244;-68
2022/01/17 10:06:04;;;;;;;31.40;18.00;;;2.50;99.90;;;;;;5076076;28;20575;-70
2022/01/17 10:08:31;;;;;;;33.03;16.87;;;2.60;99.90;;;;;;5075595;28;20309;-70
2022/01/17 10:11:00;;;;;;;29.97;17.10;;;2.60;99.90;;;;;;5075263;28;20212;-70
2022/01/17 10:13:29;;;;;;;33.43;16.87;;;2.60;99.90;;;;;;5075697;28;20263;-69
2022/01/17 10:16:03;;;;;;;30.60;16.27;;;2.50;99.90;;;;;;5075737;28;20236;-70
2022/01/17 10:18:34;;;;;;;34.73;17.37;;;2.60;99.90;;;;;;5075226;28;20216;-70
2022/01/17 10:21:06;;;;;;;35.80;18.03;;;2.60;99.90;;;;;;5075325;28;20189;-70
2022/01/17 10:23:48;;;;;;;30.13;16.70;;;2.60;99.90;;;;;;5075322;28;20609;-71
2022/01/17 10:26:37;;;;;;;31.53;17.73;;;2.60;99.90;;;;;;5075442;28;20275;-71
2022/01/17 10:34:54;;;;;;;33.53;18.13;;;2.70;99.90;;;;;;5074788;28;20230;-69
2022/01/17 10:37:23;;;;;;;30.97;16.60;;;2.70;99.90;;;;;;5063943;28;20248;-71
2022/01/17 10:39:59;;;;;;;29.67;16.17;;;2.80;99.90;;;;;;5075011;28;20215;-72
2022/01/17 10:42:35;;;;;;;29.87;15.93;;;2.80;99.90;;;;;;5074788;28;20693;-72
2022/01/17 10:45:05;;;;;;;29.20;15.93;;;2.80;99.90;;;;;;5075297;28;20198;-71
2022/01/17 10:47:34;;;;;;;29.07;15.70;;;2.80;99.90;;;;;;5077963;28;20181;-70
2022/01/17 10:50:04;;;;;;;26.13;14.87;;;2.80;99.90;;;;;;5074985;28;20720;-72
2022/01/17 10:52:34;;;;;;;29.10;15.30;;;2.80;99.90;;;;;;5075385;28;20213;-72
2022/01/17 10:55:07;;;;;;;28.20;15.00;;;2.80;99.90;;;;;;5076224;28;20208;-70
2022/01/17 10:57:39;;;;;;;28.87;16.00;;;2.80;99.90;;;;;;5074434;28;20220;-68
2022/01/17 11:00:10;;;;;;;30.70;16.00;;;2.90;99.90;;;;;;5074098;28;20326;-71
2022/01/17 11:02:39;;;;;;;26.40;15.13;;;2.80;99.90;;;;;;5074530;28;20196;-69
2022/01/17 11:05:10;;;;;;;27.77;15.53;;;2.90;99.90;;;;;;5087447;28;20204;-68
2022/01/17 11:07:46;;;;;;;27.70;15.33;;;2.90;99.90;;;;;;5078600;28;20347;-70
2022/01/17 11:10:22;;;;;;;26.77;14.83;;;2.90;99.90;;;;;;5073629;28;20195;-69
2022/01/17 11:12:52;;;;;;;26.37;15.00;;;2.90;99.90;;;;;;5074066;28;20258;-68
2022/01/17 11:15:21;;;;;;;26.83;14.73;;;2.90;99.90;;;;;;5088081;28;20214;-70
2022/01/17 11:17:49;;;;;;;27.33;14.53;;;2.80;99.90;;;;;;5082882;28;20228;-72
2022/01/17 11:20:17;;;;;;;25.70;14.87;;;2.80;99.90;;;;;;5086677;28;20208;-70
2022/01/17 11:22:46;;;;;;;24.80;14.03;;;2.90;99.90;;;;;;5068629;28;20254;-72
2022/01/17 11:25:16;;;;;;;25.57;14.50;;;2.90;99.90;;;;;;5073762;28;20205;-69
2022/01/17 11:27:43;;;;;;;24.83;13.90;;;2.90;99.90;;;;;;5076830;28;20744;-70
2022/01/17 11:30:12;;;;;;;25.77;14.27;;;2.90;99.90;;;;;;5094243;28;20682;-69
2022/01/17 11:32:39;;;;;;;24.50;14.33;;;2.90;99.90;;;;;;5094298;28;20203;-69
2022/01/17 11:35:09;;;;;;;24.47;13.33;;;2.90;99.90;;;;;;5092420;28;20538;-70
2022/01/17 11:37:38;;;;;;;23.77;13.83;;;3.00;99.90;;;;;;5085732;28;20370;-68
2022/01/17 11:40:07;;;;;;;25.03;14.33;;;3.00;99.90;;;;;;5073772;28;20204;-69
2022/01/17 11:42:40;;;;;;;21.57;12.93;;;3.00;99.90;;;;;;5074130;28;20216;-70
2022/01/17 11:45:40;;;;;;;23.50;13.33;;;3.00;99.90;;;;;;5074013;28;20193;-72
2022/01/17 11:48:16;;;;;;;22.50;12.87;;;3.10;99.90;;;;;;5073489;28;20205;-70
2022/01/17 11:50:46;;;;;;;25.27;13.67;;;3.10;99.90;;;;;;5080892;28;20191;-69
2022/01/17 11:53:52;;;;;;;23.27;13.87;;;3.10;99.90;;;;;;5073858;28;20215;-71
2022/01/17 11:56:38;;;;;;;25.50;13.80;;;3.20;99.90;;;;;;5084310;28;20195;-69
2022/01/17 11:59:41;;;;;;;27.50;14.17;;;3.20;99.90;;;;;;5080185;28;20269;-69
2022/01/17 12:02:21;;;;;;;23.63;12.97;;;3.20;99.90;;;;;;5071065;28;20200;-71
2022/01/17 12:05:25;;;;;;;23.27;12.90;;;3.30;99.90;;;;;;5072333;28;20185;-71
2022/01/17 12:07:53;;;;;;;22.27;12.77;;;3.30;99.90;;;;;;5072170;28;20199;-69
2022/01/17 12:10:21;;;;;;;20.90;12.10;;;3.30;99.90;;;;;;5074646;28;20583;-69
2022/01/17 12:13:23;;;;;;;19.67;12.43;;;3.30;99.90;;;;;;5084788;28;20196;-70
2022/01/17 12:16:06;;;;;;;20.97;12.37;;;3.30;99.90;;;;;;5072245;28;20204;-71
2022/01/17 12:18:36;;;;;;;23.27;12.17;;;3.30;99.90;;;;;;5059940;28;20200;-69
2022/01/17 12:21:21;;;;;;;20.10;12.43;;;3.30;99.90;;;;;;5070204;28;20200;-72
2022/01/17 12:23:48;;;;;;;20.17;11.77;;;3.20;99.90;;;;;;5072833;28;20229;-70
2022/01/17 12:26:28;;;;;;;21.43;12.33;;;3.20;99.90;;;;;;5072528;28;20215;-69
2022/01/17 12:28:57;;;;;;;20.83;12.53;;;3.20;99.90;;;;;;5072901;28;20192;-73
2022/01/17 12:31:41;;;;;;;22.03;12.47;;;3.10;99.90;;;;;;5073136;28;20207;-73
2022/01/17 12:34:18;;;;;;;22.37;13.20;;;3.10;99.90;;;;;;5073166;28;20724;-70
2022/01/17 12:36:46;;;;;;;21.57;12.43;;;3.10;99.90;;;;;;5072366;28;20656;-71
2022/01/17 12:39:16;;;;;;;21.40;12.47;;;3.10;99.90;;;;;;5072140;28;20228;-71
2022/01/17 12:41:47;;;;;;;20.73;12.67;;;3.00;99.90;;;;;;5072245;28;20236;-70
2022/01/17 12:44:16;;;;;;;23.77;12.63;;;3.00;99.90;;;;;;5072537;28;20189;-69
2022/01/17 12:46:43;;;;;;;19.10;12.23;;;3.00;99.90;;;;;;5070011;28;20207;-71
2022/01/17 12:49:11;;;;;;;22.10;13.37;;;2.90;99.90;;;;;;5070918;28;20197;-72
2022/01/17 12:51:42;;;;;;;22.00;12.40;;;2.90;99.90;;;;;;5071436;28;20668;-71
2022/01/17 12:54:15;;;;;;;22.03;12.73;;;2.90;99.90;;;;;;5071305;28;20207;-71
2022/01/17 12:56:42;;;;;;;17.93;12.17;;;2.90;99.90;;;;;;5071357;28;20231;-72
2022/01/17 12:59:10;;;;;;;20.73;13.07;;;2.90;99.90;;;;;;5071268;28;20216;-71
2022/01/17 13:01:43;;;;;;;23.87;13.07;;;2.90;99.90;;;;;;5072543;28;20562;-71
2022/01/17 13:04:11;;;;;;;18.17;11.80;;;2.80;99.90;;;;;;5072644;28;20548;-72
2022/01/17 13:06:40;;;;;;;20.40;12.67;;;2.80;99.90;;;;;;5072592;28;20205;-71